createdAt,value
2018-02-17T00:00:25.758Z,1020.4
2018-02-17T00:01:06.287Z,1020.43
2018-02-17T00:01:46.867Z,1020.41
2018-02-17T00:02:27.395Z,1020.44
2018-02-17T00:03:07.953Z,1020.41
2018-02-17T00:03:48.548Z,1020.42
2018-02-17T00:04:29.095Z,1020.42
2018-02-17T00:05:09.654Z,1020.41
2018-02-17T00:05:50.219Z,1020.43
2018-02-17T00:06:30.766Z,1020.44
2018-02-17T00:07:11.324Z,1020.44
2018-02-17T00:07:51.871Z,1020.43
2018-02-17T00:08:32.415Z,1020.45
2018-02-17T00:09:12.955Z,1020.42
2018-02-17T00:09:53.494Z,1020.45
2018-02-17T00:10:34.042Z,1020.45
2018-02-17T00:11:14.590Z,1020.44
2018-02-17T00:11:55.145Z,1020.46
2018-02-17T00:12:35.694Z,1020.48
2018-02-17T00:13:16.250Z,1020.43
2018-02-17T00:13:56.818Z,1020.44
2018-02-17T00:14:37.376Z,1020.46
2018-02-17T00:15:17.931Z,1020.47
2018-02-17T00:15:58.472Z,1020.47
2018-02-17T00:16:39.033Z,1020.5
2018-02-17T00:17:19.573Z,1020.49
2018-02-17T00:18:00.122Z,1020.51
2018-02-17T00:18:40.671Z,1020.52
2018-02-17T00:19:21.208Z,1020.53
2018-02-17T00:20:01.769Z,1020.51
2018-02-17T00:20:42.324Z,1020.55
2018-02-17T00:21:22.874Z,1020.53
2018-02-17T00:22:03.434Z,1020.53
2018-02-17T00:22:44.020Z,1020.52
2018-02-17T00:23:24.556Z,1020.54
2018-02-17T00:24:05.129Z,1020.54
2018-02-17T00:24:45.669Z,1020.5
2018-02-17T00:25:26.222Z,1020.49
2018-02-17T00:26:06.784Z,1020.52
2018-02-17T00:26:47.337Z,1020.53
2018-02-17T00:27:27.894Z,1020.51
2018-02-17T00:28:08.423Z,1020.53
2018-02-17T00:28:48.964Z,1020.53
2018-02-17T00:29:29.515Z,1020.53
2018-02-17T00:30:10.087Z,1020.51
2018-02-17T00:30:50.640Z,1020.54
2018-02-17T00:31:31.179Z,1020.52
2018-02-17T00:32:11.746Z,1020.52
2018-02-17T00:32:52.319Z,1020.52
2018-02-17T00:33:32.867Z,1020.48
2018-02-17T00:34:13.418Z,1020.48
2018-02-17T00:34:53.988Z,1020.51
2018-02-17T00:35:34.514Z,1020.5
2018-02-17T00:36:15.081Z,1020.53
2018-02-17T00:36:55.614Z,1020.52
2018-02-17T00:37:36.158Z,1020.54
2018-02-17T00:38:16.722Z,1020.58
2018-02-17T00:38:57.256Z,1020.59
2018-02-17T00:39:37.804Z,1020.58
2018-02-17T00:40:18.359Z,1020.56
2018-02-17T00:40:58.928Z,1020.59
2018-02-17T00:41:39.462Z,1020.58
2018-02-17T00:42:20.034Z,1020.6
2018-02-17T00:43:00.593Z,1020.6
2018-02-17T00:43:41.145Z,1020.59
2018-02-17T00:44:21.694Z,1020.65
2018-02-17T00:45:02.260Z,1020.63
2018-02-17T00:45:42.808Z,1020.64
2018-02-17T00:46:23.384Z,1020.63
2018-02-17T00:47:03.916Z,1020.62
2018-02-17T00:47:44.471Z,1020.61
2018-02-17T00:48:25.071Z,1020.6
2018-02-17T00:49:05.583Z,1020.58
2018-02-17T00:49:46.113Z,1020.6
2018-02-17T00:50:26.692Z,1020.59
2018-02-17T00:51:07.249Z,1020.58
2018-02-17T00:51:47.800Z,1020.59
2018-02-17T00:52:28.349Z,1020.64
2018-02-17T00:53:08.904Z,1020.61
2018-02-17T00:53:49.465Z,1020.65
2018-02-17T00:54:30.010Z,1020.63
2018-02-17T00:55:10.570Z,1020.62
2018-02-17T00:55:51.135Z,1020.63
2018-02-17T00:56:31.694Z,1020.64
2018-02-17T00:57:12.245Z,1020.66
2018-02-17T00:57:52.841Z,1020.64
2018-02-17T00:58:33.401Z,1020.68
2018-02-17T00:59:13.925Z,1020.64
2018-02-17T00:59:54.480Z,1020.62
2018-02-17T01:00:35.029Z,1020.65
2018-02-17T01:01:15.588Z,1020.68
2018-02-17T01:01:56.149Z,1020.66
2018-02-17T01:02:36.699Z,1020.69
2018-02-17T01:03:17.251Z,1020.68
2018-02-17T01:03:57.794Z,1020.7
2018-02-17T01:04:38.357Z,1020.7
2018-02-17T01:05:18.894Z,1020.71
2018-02-17T01:05:59.445Z,1020.73
2018-02-17T01:06:40.002Z,1020.73
2018-02-17T01:07:20.533Z,1020.74
2018-02-17T01:08:01.085Z,1020.72
2018-02-17T01:08:41.639Z,1020.72
2018-02-17T01:09:22.187Z,1020.76
2018-02-17T01:10:02.737Z,1020.74
2018-02-17T01:10:43.277Z,1020.73
2018-02-17T01:11:23.837Z,1020.71
2018-02-17T01:12:04.392Z,1020.75
2018-02-17T01:12:44.952Z,1020.73
2018-02-17T01:13:25.500Z,1020.79
2018-02-17T01:14:06.056Z,1020.78
2018-02-17T01:14:46.639Z,1020.8
2018-02-17T01:15:27.175Z,1020.81
2018-02-17T01:16:07.724Z,1020.87
2018-02-17T01:16:48.276Z,1020.85
2018-02-17T01:17:28.812Z,1020.79
2018-02-17T01:18:09.342Z,1020.89
2018-02-17T01:18:49.909Z,1020.84
2018-02-17T01:19:30.460Z,1020.88
2018-02-17T01:20:11.012Z,1020.85
2018-02-17T01:20:51.556Z,1020.86
2018-02-17T01:21:32.105Z,1020.91
2018-02-17T01:22:12.669Z,1020.88
2018-02-17T01:22:53.208Z,1020.88
2018-02-17T01:23:33.764Z,1020.85
2018-02-17T01:24:14.298Z,1020.86
2018-02-17T01:24:54.868Z,1020.89
2018-02-17T01:25:35.436Z,1020.88
2018-02-17T01:26:16.002Z,1020.93
2018-02-17T01:26:56.555Z,1020.97
2018-02-17T01:27:37.112Z,1020.97
2018-02-17T01:28:17.668Z,1020.95
2018-02-17T01:28:58.222Z,1020.97
2018-02-17T01:29:38.771Z,1020.99
2018-02-17T01:30:19.328Z,1020.99
2018-02-17T01:30:59.892Z,1020.93
2018-02-17T01:31:40.428Z,1020.93
2018-02-17T01:32:20.970Z,1020.99
2018-02-17T01:33:01.522Z,1021
2018-02-17T01:33:42.074Z,1021
2018-02-17T01:34:22.620Z,1020.98
2018-02-17T01:35:03.211Z,1021
2018-02-17T01:35:43.753Z,1021.04
2018-02-17T01:36:24.320Z,1020.97
2018-02-17T01:37:04.865Z,1021
2018-02-17T01:37:45.417Z,1021.04
2018-02-17T01:38:25.994Z,1021.02
2018-02-17T01:39:06.552Z,1021.03
2018-02-17T01:39:47.094Z,1021.05
2018-02-17T01:40:27.631Z,1021.02
2018-02-17T01:41:08.183Z,1021.04
2018-02-17T01:41:48.753Z,1020.97
2018-02-17T01:42:29.354Z,1021.01
2018-02-17T01:43:09.894Z,1021.01
2018-02-17T01:43:50.440Z,1021.04
2018-02-17T01:44:31.000Z,1021
2018-02-17T01:45:11.548Z,1020.99
2018-02-17T01:45:52.108Z,1021.01
2018-02-17T01:46:32.664Z,1020.99
2018-02-17T01:47:13.217Z,1021
2018-02-17T01:47:53.771Z,1020.98
2018-02-17T01:48:34.325Z,1021
2018-02-17T01:49:14.921Z,1021.09
2018-02-17T01:49:55.471Z,1021.07
2018-02-17T01:50:36.035Z,1020.98
2018-02-17T01:51:16.584Z,1020.99
2018-02-17T01:51:57.139Z,1021
2018-02-17T01:52:37.696Z,1020.99
2018-02-17T01:53:18.257Z,1020.94
2018-02-17T01:53:58.819Z,1020.95
2018-02-17T01:54:40.114Z,1020.93
2018-02-17T01:55:20.651Z,1020.97
2018-02-17T01:56:01.202Z,1020.95
2018-02-17T01:56:41.753Z,1021
2018-02-17T01:57:22.309Z,1020.93
2018-02-17T01:58:02.865Z,1020.96
2018-02-17T01:58:43.421Z,1020.95
2018-02-17T01:59:23.965Z,1020.91
2018-02-17T02:00:04.538Z,1020.86
2018-02-17T02:00:45.091Z,1020.9
2018-02-17T02:01:25.656Z,1020.86
2018-02-17T02:02:06.183Z,1020.85
2018-02-17T02:02:46.708Z,1020.81
2018-02-17T02:03:27.252Z,1020.85
2018-02-17T02:04:07.841Z,1020.82
2018-02-17T02:04:48.387Z,1020.82
2018-02-17T02:05:28.929Z,1020.79
2018-02-17T02:06:09.500Z,1020.78
2018-02-17T02:06:50.037Z,1020.79
2018-02-17T02:07:30.579Z,1020.74
2018-02-17T02:08:11.161Z,1020.76
2018-02-17T02:08:51.712Z,1020.77
2018-02-17T02:09:32.251Z,1020.79
2018-02-17T02:10:12.787Z,1020.77
2018-02-17T02:10:53.342Z,1020.83
2018-02-17T02:11:33.893Z,1020.82
2018-02-17T02:12:14.450Z,1020.74
2018-02-17T02:12:55.036Z,1020.74
2018-02-17T02:13:35.576Z,1020.72
2018-02-17T02:14:16.126Z,1020.69
2018-02-17T02:14:56.682Z,1020.68
2018-02-17T02:15:37.220Z,1020.68
2018-02-17T02:16:17.769Z,1020.67
2018-02-17T02:16:58.321Z,1020.69
2018-02-17T02:17:38.878Z,1020.67
2018-02-17T02:18:19.454Z,1020.67
2018-02-17T02:19:00.025Z,1020.63
2018-02-17T02:19:40.563Z,1020.61
2018-02-17T02:20:21.112Z,1020.65
2018-02-17T02:21:01.670Z,1020.63
2018-02-17T02:21:42.236Z,1020.6
2018-02-17T02:22:22.776Z,1020.63
2018-02-17T02:23:03.327Z,1020.57
2018-02-17T02:23:43.885Z,1020.56
2018-02-17T02:24:24.465Z,1020.58
2018-02-17T02:25:05.030Z,1020.58
2018-02-17T02:25:45.603Z,1020.54
2018-02-17T02:26:26.121Z,1020.55
2018-02-17T02:27:06.684Z,1020.49
2018-02-17T02:27:47.236Z,1020.54
2018-02-17T02:28:27.836Z,1020.51
2018-02-17T02:29:08.377Z,1020.52
2018-02-17T02:29:49.007Z,1020.56
2018-02-17T02:30:29.630Z,1020.5
2018-02-17T02:31:10.202Z,1020.54
2018-02-17T02:31:50.766Z,1020.5
2018-02-17T02:32:31.390Z,1020.54
2018-02-17T02:33:11.895Z,1020.52
2018-02-17T02:33:52.495Z,1020.48
2018-02-17T02:34:33.046Z,1020.5
2018-02-17T02:35:13.604Z,1020.49
2018-02-17T02:35:54.161Z,1020.5
2018-02-17T02:36:34.721Z,1020.47
2018-02-17T02:37:15.265Z,1020.55
2018-02-17T02:37:55.824Z,1020.51
2018-02-17T02:38:36.370Z,1020.54
2018-02-17T02:39:16.918Z,1020.52
2018-02-17T02:39:57.479Z,1020.55
2018-02-17T02:40:38.036Z,1020.55
2018-02-17T02:41:18.607Z,1020.54
2018-02-17T02:41:59.148Z,1020.56
2018-02-17T02:42:39.712Z,1020.57
2018-02-17T02:43:20.263Z,1020.56
2018-02-17T02:44:00.812Z,1020.61
2018-02-17T02:44:41.372Z,1020.54
2018-02-17T02:45:21.922Z,1020.61
2018-02-17T02:46:02.484Z,1020.57
2018-02-17T02:46:43.036Z,1020.61
2018-02-17T02:47:23.594Z,1020.6
2018-02-17T02:48:04.141Z,1020.58
2018-02-17T02:48:44.713Z,1020.59
2018-02-17T02:49:25.264Z,1020.58
2018-02-17T02:50:05.815Z,1020.58
2018-02-17T02:50:46.383Z,1020.57
2018-02-17T02:51:26.932Z,1020.56
2018-02-17T02:52:07.493Z,1020.54
2018-02-17T02:52:48.055Z,1020.52
2018-02-17T02:53:28.638Z,1020.53
2018-02-17T02:54:09.191Z,1020.48
2018-02-17T02:54:49.745Z,1020.52
2018-02-17T02:55:30.300Z,1020.48
2018-02-17T02:56:10.858Z,1020.48
2018-02-17T02:56:51.954Z,1020.43
2018-02-17T02:57:32.546Z,1020.43
2018-02-17T02:58:13.081Z,1020.43
2018-02-17T02:58:53.625Z,1020.42
2018-02-17T02:59:34.177Z,1020.45
2018-02-17T03:00:14.759Z,1020.46
2018-02-17T03:00:55.381Z,1020.48
2018-02-17T03:01:35.934Z,1020.48
2018-02-17T03:02:16.577Z,1020.44
2018-02-17T03:02:57.140Z,1020.49
2018-02-17T03:03:37.720Z,1020.5
2018-02-17T03:04:18.270Z,1020.49
2018-02-17T03:04:58.834Z,1020.5
2018-02-17T03:05:39.415Z,1020.48
2018-02-17T03:06:19.968Z,1020.54
2018-02-17T03:07:00.532Z,1020.47
2018-02-17T03:07:41.105Z,1020.47
2018-02-17T03:08:21.676Z,1020.46
2018-02-17T03:09:02.261Z,1020.52
2018-02-17T03:09:42.818Z,1020.48
2018-02-17T03:10:23.377Z,1020.49
2018-02-17T03:11:03.935Z,1020.46
2018-02-17T03:11:44.483Z,1020.48
2018-02-17T03:12:25.179Z,1020.53
2018-02-17T03:13:05.741Z,1020.54
2018-02-17T03:13:46.364Z,1020.52
2018-02-17T03:14:26.854Z,1020.54
2018-02-17T03:15:07.477Z,1020.49
2018-02-17T03:15:48.044Z,1020.48
2018-02-17T03:16:28.675Z,1020.44
2018-02-17T03:17:09.174Z,1020.44
2018-02-17T03:17:49.745Z,1020.47
2018-02-17T03:18:30.318Z,1020.43
2018-02-17T03:19:10.882Z,1020.47
2018-02-17T03:19:51.436Z,1020.43
2018-02-17T03:20:31.984Z,1020.46
2018-02-17T03:21:12.582Z,1020.43
2018-02-17T03:21:53.114Z,1020.45
2018-02-17T03:22:33.656Z,1020.41
2018-02-17T03:23:14.230Z,1020.5
2018-02-17T03:23:54.837Z,1020.49
2018-02-17T03:24:35.365Z,1020.48
2018-02-17T03:25:15.909Z,1020.42
2018-02-17T03:25:56.545Z,1020.44
2018-02-17T03:26:37.102Z,1020.45
2018-02-17T03:27:17.651Z,1020.44
2018-02-17T03:27:58.246Z,1020.48
2018-02-17T03:28:38.876Z,1020.44
2018-02-17T03:29:19.432Z,1020.52
2018-02-17T03:29:59.982Z,1020.42
2018-02-17T03:30:40.535Z,1020.48
2018-02-17T03:31:21.096Z,1020.48
2018-02-17T03:32:01.669Z,1020.49
2018-02-17T03:32:42.241Z,1020.5
2018-02-17T03:33:22.803Z,1020.47
2018-02-17T03:34:03.368Z,1020.45
2018-02-17T03:34:43.916Z,1020.39
2018-02-17T03:35:24.469Z,1020.4
2018-02-17T03:36:05.019Z,1020.42
2018-02-17T03:36:45.587Z,1020.42
2018-02-17T03:37:26.138Z,1020.4
2018-02-17T03:38:06.716Z,1020.38
2018-02-17T03:38:47.256Z,1020.34
2018-02-17T03:39:27.821Z,1020.35
2018-02-17T03:40:08.384Z,1020.35
2018-02-17T03:40:48.976Z,1020.31
2018-02-17T03:41:29.548Z,1020.27
2018-02-17T03:42:10.122Z,1020.3
2018-02-17T03:42:50.666Z,1020.26
2018-02-17T03:43:31.242Z,1020.26
2018-02-17T03:44:11.839Z,1020.23
2018-02-17T03:44:52.395Z,1020.26
2018-02-17T03:45:32.956Z,1020.23
2018-02-17T03:46:13.519Z,1020.25
2018-02-17T03:46:54.096Z,1020.21
2018-02-17T03:47:34.635Z,1020.22
2018-02-17T03:48:15.210Z,1020.23
2018-02-17T03:48:55.764Z,1020.19
2018-02-17T03:49:36.301Z,1020.14
2018-02-17T03:50:16.839Z,1020.15
2018-02-17T03:50:57.397Z,1020.15
2018-02-17T03:51:37.941Z,1020.14
2018-02-17T03:52:18.500Z,1020.13
2018-02-17T03:52:59.049Z,1020.18
2018-02-17T03:53:39.596Z,1020.14
2018-02-17T03:54:20.154Z,1020.18
2018-02-17T03:55:00.700Z,1020.17
2018-02-17T03:55:41.248Z,1020.14
2018-02-17T03:56:21.800Z,1020.13
2018-02-17T03:57:02.371Z,1020.16
2018-02-17T03:57:42.907Z,1020.2
2018-02-17T03:58:23.452Z,1020.15
2018-02-17T03:59:04.007Z,1020.2
2018-02-17T03:59:44.556Z,1020.22
2018-02-17T04:00:25.117Z,1020.22
2018-02-17T04:01:05.665Z,1020.21
2018-02-17T04:01:46.210Z,1020.18
2018-02-17T04:02:26.759Z,1020.18
2018-02-17T04:03:07.309Z,1020.21
2018-02-17T04:03:47.866Z,1020.19
2018-02-17T04:04:28.436Z,1020.22
2018-02-17T04:05:08.955Z,1020.22
2018-02-17T04:05:49.516Z,1020.26
2018-02-17T04:06:30.051Z,1020.25
2018-02-17T04:07:10.615Z,1020.28
2018-02-17T04:07:51.168Z,1020.29
2018-02-17T04:08:31.726Z,1020.31
2018-02-17T04:09:12.283Z,1020.31
2018-02-17T04:09:52.881Z,1020.32
2018-02-17T04:10:33.443Z,1020.32
2018-02-17T04:11:14.003Z,1020.28
2018-02-17T04:11:54.575Z,1020.24
2018-02-17T04:12:35.123Z,1020.25
2018-02-17T04:13:15.831Z,1020.25
2018-02-17T04:13:56.394Z,1020.31
2018-02-17T04:14:36.945Z,1020.28
2018-02-17T04:15:17.498Z,1020.28
2018-02-17T04:15:58.041Z,1020.3
2018-02-17T04:16:38.602Z,1020.27
2018-02-17T04:17:19.153Z,1020.26
2018-02-17T04:17:59.724Z,1020.24
2018-02-17T04:18:40.283Z,1020.23
2018-02-17T04:19:20.830Z,1020.29
2018-02-17T04:20:01.420Z,1020.29
2018-02-17T04:20:42.004Z,1020.28
2018-02-17T04:21:22.563Z,1020.31
2018-02-17T04:22:03.104Z,1020.27
2018-02-17T04:22:43.643Z,1020.27
2018-02-17T04:23:24.208Z,1020.26
2018-02-17T04:24:04.761Z,1020.23
2018-02-17T04:24:45.307Z,1020.21
2018-02-17T04:25:25.891Z,1020.22
2018-02-17T04:26:06.483Z,1020.26
2018-02-17T04:26:47.028Z,1020.25
2018-02-17T04:27:27.629Z,1020.23
2018-02-17T04:28:08.132Z,1020.24
2018-02-17T04:28:48.690Z,1020.23
2018-02-17T04:29:29.240Z,1020.21
2018-02-17T04:30:09.803Z,1020.18
2018-02-17T04:30:50.344Z,1020.14
2018-02-17T04:31:30.896Z,1020.16
2018-02-17T04:32:11.448Z,1020.13
2018-02-17T04:32:51.997Z,1020.14
2018-02-17T04:33:32.545Z,1020.13
2018-02-17T04:34:13.099Z,1020.1
2018-02-17T04:34:53.644Z,1020.11
2018-02-17T04:35:34.205Z,1020.14
2018-02-17T04:36:14.751Z,1020.11
2018-02-17T04:36:55.295Z,1020.07
2018-02-17T04:37:35.857Z,1020.03
2018-02-17T04:38:16.403Z,1020.08
2018-02-17T04:38:56.955Z,1020.07
2018-02-17T04:39:37.513Z,1020.04
2018-02-17T04:40:18.066Z,1020.01
2018-02-17T04:40:58.674Z,1020.08
2018-02-17T04:41:39.249Z,1020.07
2018-02-17T04:42:19.951Z,1020.06
2018-02-17T04:43:00.476Z,1020.03
2018-02-17T04:43:41.026Z,1020.07
2018-02-17T04:44:21.576Z,1020.07
2018-02-17T04:45:02.127Z,1020.05
2018-02-17T04:45:42.670Z,1020.03
2018-02-17T04:46:23.229Z,1020
2018-02-17T04:47:03.825Z,1019.99
2018-02-17T04:47:44.380Z,1020.01
2018-02-17T04:48:24.933Z,1020.02
2018-02-17T04:49:05.471Z,1020.02
2018-02-17T04:49:46.037Z,1019.97
2018-02-17T04:50:26.587Z,1019.99
2018-02-17T04:51:07.165Z,1019.98
2018-02-17T04:51:47.719Z,1019.99
2018-02-17T04:52:28.267Z,1020.01
2018-02-17T04:53:08.830Z,1020.02
2018-02-17T04:53:49.394Z,1020.08
2018-02-17T04:54:29.947Z,1020.12
2018-02-17T04:55:10.496Z,1020.11
2018-02-17T04:55:51.068Z,1020.06
2018-02-17T04:56:31.610Z,1020.02
2018-02-17T04:57:12.152Z,1020
2018-02-17T04:57:52.726Z,1019.94
2018-02-17T04:58:33.271Z,1019.93
2018-02-17T04:59:13.826Z,1019.93
2018-02-17T04:59:54.411Z,1019.89
2018-02-17T05:00:34.969Z,1019.99
2018-02-17T05:01:15.580Z,1019.96
2018-02-17T05:01:56.120Z,1019.94
2018-02-17T05:02:36.687Z,1019.89
2018-02-17T05:03:17.241Z,1019.88
2018-02-17T05:03:57.790Z,1019.87
2018-02-17T05:04:38.349Z,1019.84
2018-02-17T05:05:18.893Z,1019.8
2018-02-17T05:05:59.477Z,1019.8
2018-02-17T05:06:40.049Z,1019.74
2018-02-17T05:07:20.609Z,1019.71
2018-02-17T05:08:01.165Z,1019.69
2018-02-17T05:08:41.711Z,1019.69
2018-02-17T05:09:22.267Z,1019.68
2018-02-17T05:10:02.837Z,1019.65
2018-02-17T05:10:43.389Z,1019.67
2018-02-17T05:11:23.997Z,1019.71
2018-02-17T05:12:04.545Z,1019.71
2018-02-17T05:12:45.110Z,1019.72
2018-02-17T05:13:25.646Z,1019.71
2018-02-17T05:14:06.211Z,1019.69
2018-02-17T05:14:46.899Z,1019.68
2018-02-17T05:15:27.437Z,1019.68
2018-02-17T05:16:07.989Z,1019.64
2018-02-17T05:16:48.535Z,1019.67
2018-02-17T05:17:29.080Z,1019.71
2018-02-17T05:18:09.658Z,1019.72
2018-02-17T05:18:50.182Z,1019.69
2018-02-17T05:19:30.731Z,1019.68
2018-02-17T05:20:11.290Z,1019.69
2018-02-17T05:20:51.846Z,1019.71
2018-02-17T05:21:32.419Z,1019.69
2018-02-17T05:22:13.006Z,1019.74
2018-02-17T05:22:53.567Z,1019.73
2018-02-17T05:23:34.138Z,1019.8
2018-02-17T05:24:14.691Z,1019.75
2018-02-17T05:24:55.244Z,1019.76
2018-02-17T05:25:35.798Z,1019.72
2018-02-17T05:26:16.356Z,1019.75
2018-02-17T05:26:56.893Z,1019.72
2018-02-17T05:27:37.451Z,1019.73
2018-02-17T05:28:18.000Z,1019.73
2018-02-17T05:28:58.561Z,1019.8
2018-02-17T05:29:39.118Z,1019.86
2018-02-17T05:30:19.690Z,1019.84
2018-02-17T05:31:00.241Z,1019.79
2018-02-17T05:31:40.857Z,1019.81
2018-02-17T05:32:21.473Z,1019.84
2018-02-17T05:33:02.038Z,1019.79
2018-02-17T05:33:42.602Z,1019.78
2018-02-17T05:34:23.207Z,1019.78
2018-02-17T05:35:03.745Z,1019.77
2018-02-17T05:35:44.306Z,1019.76
2018-02-17T05:36:24.851Z,1019.73
2018-02-17T05:37:05.394Z,1019.72
2018-02-17T05:37:45.954Z,1019.72
2018-02-17T05:38:26.489Z,1019.75
2018-02-17T05:39:07.037Z,1019.78
2018-02-17T05:39:47.586Z,1019.81
2018-02-17T05:40:28.173Z,1019.82
2018-02-17T05:41:08.783Z,1019.82
2018-02-17T05:41:49.330Z,1019.81
2018-02-17T05:42:29.903Z,1019.82
2018-02-17T05:43:10.446Z,1019.79
2018-02-17T05:43:51.148Z,1019.82
2018-02-17T05:44:31.930Z,1019.74
2018-02-17T05:45:12.404Z,1019.76
2018-02-17T05:45:53.041Z,1019.73
2018-02-17T05:46:33.540Z,1019.8
2018-02-17T05:47:14.174Z,1019.82
2018-02-17T05:47:54.815Z,1019.79
2018-02-17T05:48:35.465Z,1019.78
2018-02-17T05:49:16.099Z,1019.79
2018-02-17T05:49:56.666Z,1019.79
2018-02-17T05:50:37.288Z,1019.75
2018-02-17T05:51:17.772Z,1019.77
2018-02-17T05:51:58.365Z,1019.75
2018-02-17T05:52:38.936Z,1019.74
2018-02-17T05:53:19.495Z,1019.73
2018-02-17T05:54:00.119Z,1019.74
2018-02-17T05:54:40.687Z,1019.74
2018-02-17T05:55:21.250Z,1019.72
2018-02-17T05:56:01.787Z,1019.75
2018-02-17T05:56:42.336Z,1019.69
2018-02-17T05:57:22.890Z,1019.69
2018-02-17T05:58:03.470Z,1019.73
2018-02-17T05:58:44.051Z,1019.68
2018-02-17T05:59:24.611Z,1019.75
2018-02-17T06:00:05.158Z,1019.77
2018-02-17T06:00:45.733Z,1019.79
2018-02-17T06:01:26.299Z,1019.81
2018-02-17T06:02:06.867Z,1019.82
2018-02-17T06:02:47.446Z,1019.8
2018-02-17T06:03:28.036Z,1019.76
2018-02-17T06:04:08.613Z,1019.83
2018-02-17T06:04:49.177Z,1019.86
2018-02-17T06:05:29.731Z,1019.84
2018-02-17T06:06:10.284Z,1019.86
2018-02-17T06:06:50.832Z,1019.86
2018-02-17T06:07:31.394Z,1019.85
2018-02-17T06:08:11.940Z,1019.86
2018-02-17T06:08:52.524Z,1019.87
2018-02-17T06:09:33.075Z,1019.92
2018-02-17T06:10:13.674Z,1019.86
2018-02-17T06:10:54.224Z,1019.83
2018-02-17T06:11:34.789Z,1019.8
2018-02-17T06:12:15.375Z,1019.79
2018-02-17T06:12:56.094Z,1019.78
2018-02-17T06:13:36.660Z,1019.77
2018-02-17T06:14:17.207Z,1019.75
2018-02-17T06:14:57.801Z,1019.82
2018-02-17T06:15:38.303Z,1019.82
2018-02-17T06:16:18.852Z,1019.85
2018-02-17T06:16:59.411Z,1019.84
2018-02-17T06:17:39.963Z,1019.85
2018-02-17T06:18:20.511Z,1019.83
2018-02-17T06:19:01.082Z,1019.86
2018-02-17T06:19:41.644Z,1019.83
2018-02-17T06:20:22.204Z,1019.82
2018-02-17T06:21:02.784Z,1019.84
2018-02-17T06:21:43.342Z,1019.8
2018-02-17T06:22:23.910Z,1019.8
2018-02-17T06:23:04.490Z,1019.82
2018-02-17T06:23:45.050Z,1019.79
2018-02-17T06:24:25.592Z,1019.76
2018-02-17T06:25:06.138Z,1019.81
2018-02-17T06:25:46.682Z,1019.79
2018-02-17T06:26:27.262Z,1019.73
2018-02-17T06:27:07.944Z,1019.75
2018-02-17T06:27:48.539Z,1019.71
2018-02-17T06:28:29.087Z,1019.69
2018-02-17T06:29:09.649Z,1019.73
2018-02-17T06:29:50.182Z,1019.71
2018-02-17T06:30:30.736Z,1019.7
2018-02-17T06:31:11.310Z,1019.69
2018-02-17T06:31:51.861Z,1019.73
2018-02-17T06:32:32.402Z,1019.68
2018-02-17T06:33:12.961Z,1019.69
2018-02-17T06:33:53.503Z,1019.74
2018-02-17T06:34:34.054Z,1019.72
2018-02-17T06:35:14.608Z,1019.78
2018-02-17T06:35:55.163Z,1019.75
2018-02-17T06:36:35.707Z,1019.74
2018-02-17T06:37:16.996Z,1019.77
2018-02-17T06:37:57.545Z,1019.74
2018-02-17T06:38:38.108Z,1019.73
2018-02-17T06:39:18.704Z,1019.75
2018-02-17T06:39:59.439Z,1019.77
2018-02-17T06:40:39.964Z,1019.75
2018-02-17T06:41:20.520Z,1019.71
2018-02-17T06:42:01.102Z,1019.71
2018-02-17T06:42:41.661Z,1019.7
2018-02-17T06:43:22.358Z,1019.7
2018-02-17T06:44:02.911Z,1019.69
2018-02-17T06:44:43.470Z,1019.7
2018-02-17T06:45:24.025Z,1019.67
2018-02-17T06:46:04.578Z,1019.67
2018-02-17T06:46:45.106Z,1019.64
2018-02-17T06:47:25.669Z,1019.68
2018-02-17T06:48:06.227Z,1019.7
2018-02-17T06:48:46.825Z,1019.7
2018-02-17T06:49:27.389Z,1019.67
2018-02-17T06:50:07.948Z,1019.68
2018-02-17T06:50:48.503Z,1019.66
2018-02-17T06:51:29.056Z,1019.63
2018-02-17T06:52:09.605Z,1019.67
2018-02-17T06:52:50.161Z,1019.68
2018-02-17T06:53:30.720Z,1019.69
2018-02-17T06:54:11.265Z,1019.71
2018-02-17T06:54:51.825Z,1019.74
2018-02-17T06:55:32.368Z,1019.71
2018-02-17T06:56:12.918Z,1019.76
2018-02-17T06:56:53.480Z,1019.75
2018-02-17T06:57:34.040Z,1019.74
2018-02-17T06:58:14.577Z,1019.73
2018-02-17T06:58:55.135Z,1019.72
2018-02-17T06:59:35.696Z,1019.65
2018-02-17T07:00:16.302Z,1019.7
2018-02-17T07:00:56.802Z,1019.63
2018-02-17T07:01:37.353Z,1019.64
2018-02-17T07:02:17.902Z,1019.66
2018-02-17T07:02:58.454Z,1019.66
2018-02-17T07:03:39.014Z,1019.68
2018-02-17T07:04:19.549Z,1019.66
2018-02-17T07:05:00.098Z,1019.67
2018-02-17T07:05:40.910Z,1019.67
2018-02-17T07:06:21.472Z,1019.67
2018-02-17T07:07:02.229Z,1019.68
2018-02-17T07:07:42.860Z,1019.67
2018-02-17T07:08:23.418Z,1019.66
2018-02-17T07:09:03.966Z,1019.67
2018-02-17T07:09:44.511Z,1019.7
2018-02-17T07:10:25.075Z,1019.69
2018-02-17T07:11:05.843Z,1019.7
2018-02-17T07:11:46.466Z,1019.72
2018-02-17T07:12:27.148Z,1019.72
2018-02-17T07:13:07.763Z,1019.74
2018-02-17T07:16:52.743Z,1019.71
2018-02-17T07:17:33.446Z,1019.71
2018-02-17T07:18:14.028Z,1019.73
2018-02-17T07:18:54.585Z,1019.74
2018-02-17T07:19:35.114Z,1019.69
2018-02-17T07:20:15.668Z,1019.72
2018-02-17T07:20:56.204Z,1019.66
2018-02-17T07:21:36.771Z,1019.68
2018-02-17T07:22:17.339Z,1019.66
2018-02-17T07:22:57.887Z,1019.69
2018-02-17T07:23:38.423Z,1019.64
2018-02-17T07:24:19.008Z,1019.64
2018-02-17T07:24:59.555Z,1019.65
2018-02-17T07:25:40.101Z,1019.67
2018-02-17T07:26:20.652Z,1019.64
2018-02-17T07:27:01.196Z,1019.68
2018-02-17T07:27:41.744Z,1019.65
2018-02-17T07:28:22.299Z,1019.59
2018-02-17T07:29:02.891Z,1019.62
2018-02-17T07:29:43.444Z,1019.63
2018-02-17T07:30:24.081Z,1019.64
2018-02-17T07:31:04.725Z,1019.62
2018-02-17T07:31:45.293Z,1019.61
2018-02-17T07:32:25.849Z,1019.59
2018-02-17T07:33:06.484Z,1019.59
2018-02-17T07:33:47.005Z,1019.61
2018-02-17T07:34:27.540Z,1019.59
2018-02-17T07:35:08.119Z,1019.52
2018-02-17T07:35:48.858Z,1019.57
2018-02-17T07:36:29.418Z,1019.57
2018-02-17T07:37:09.966Z,1019.55
2018-02-17T07:37:50.545Z,1019.53
2018-02-17T07:38:31.174Z,1019.55
2018-02-17T07:39:11.932Z,1019.56
2018-02-17T07:39:52.692Z,1019.51
2018-02-17T07:40:34.757Z,1019.49
2018-02-17T07:41:15.299Z,1019.55
2018-02-17T07:41:55.846Z,1019.5
2018-02-17T07:42:36.529Z,1019.5
2018-02-17T07:43:18.067Z,1019.51
2018-02-17T07:43:58.584Z,1019.46
2018-02-17T07:44:39.609Z,1019.47
2018-02-17T07:45:21.035Z,1019.46
2018-02-17T07:46:01.583Z,1019.46
2018-02-17T07:46:42.124Z,1019.47
2018-02-17T07:47:22.792Z,1019.5
2018-02-17T07:48:03.383Z,1019.47
2018-02-17T07:48:43.958Z,1019.52
2018-02-17T07:49:24.504Z,1019.51
2018-02-17T07:50:05.056Z,1019.5
2018-02-17T07:50:45.596Z,1019.5
2018-02-17T07:51:26.173Z,1019.5
2018-02-17T07:52:06.832Z,1019.56
2018-02-17T07:52:47.464Z,1019.53
2018-02-17T07:53:28.032Z,1019.55
2018-02-17T07:54:08.570Z,1019.49
2018-02-17T07:54:49.271Z,1019.51
2018-02-17T07:55:30.182Z,1019.47
2018-02-17T07:56:11.203Z,1019.47
2018-02-17T07:56:51.796Z,1019.47
2018-02-17T07:57:32.330Z,1019.41
2018-02-17T07:58:12.897Z,1019.39
2018-02-17T07:58:53.470Z,1019.44
2018-02-17T07:59:34.180Z,1019.4
2018-02-17T08:00:15.225Z,1019.34
2018-02-17T08:00:55.791Z,1019.38
2018-02-17T08:01:36.317Z,1019.4
2018-02-17T08:02:16.915Z,1019.42
2018-02-17T08:02:57.462Z,1019.42
2018-02-17T08:03:38.059Z,1019.42
2018-02-17T08:04:18.621Z,1019.41
2018-02-17T08:04:59.203Z,1019.41
2018-02-17T08:05:39.724Z,1019.42
2018-02-17T08:06:20.308Z,1019.4
2018-02-17T08:07:00.866Z,1019.43
2018-02-17T08:07:41.415Z,1019.41
2018-02-17T08:08:28.678Z,1019.39
2018-02-17T08:09:09.223Z,1019.39
2018-02-17T08:09:49.791Z,1019.4
2018-02-17T08:10:30.323Z,1019.38
2018-02-17T08:11:10.867Z,1019.4
2018-02-17T08:11:51.506Z,1019.37
2018-02-17T08:12:32.154Z,1019.39
2018-02-17T08:13:12.820Z,1019.37
2018-02-17T08:13:53.378Z,1019.45
2018-02-17T08:14:33.976Z,1019.4
2018-02-17T08:15:15.012Z,1019.4
2018-02-17T08:15:55.634Z,1019.38